Time,TemperatureF,DewpointF,PressureIn,WindDirection,WindDirectionDegrees,WindSpeedMPH,WindSpeedGustMPH,Humidity,HourlyPrecipIn,Conditions,Clouds,dailyrainin,SoftwareType,DateUTC
2013-09-01 00:07:00,79.5,70.1,29.92,WNW,292,0.0,-999.0,73,0.00,,,0.00,open2300 v1.10,2013-09-01 05:07:00,
2013-09-01 00:12:00,79.9,70.4,29.91,WNW,292,0.0,-999.0,73,0.00,,,0.00,open2300 v1.10,2013-09-01 05:12:00,
2013-09-01 00:17:00,80.1,70.6,29.92,WNW,292,0.0,-999.0,73,0.00,,,0.00,open2300 v1.10,2013-09-01 05:17:00,
2013-09-01 00:22:00,80.2,70.4,29.91,WNW,292,0.0,-999.0,72,0.00,,,0.00,open2300 v1.10,2013-09-01 05:22:00,
2013-09-01 00:27:00,80.2,70.8,29.91,WNW,292,0.0,-999.0,73,0.00,,,0.00,open2300 v1.10,2013-09-01 05:27:00,
2013-09-01 00:32:00,80.2,70.4,29.91,WNW,292,0.0,-999.0,72,0.00,,,0.00,open2300 v1.10,2013-09-01 05:32:00,
2013-09-01 00:37:00,80.2,70.4,29.91,WNW,292,0.0,-999.0,72,0.00,,,0.00,open2300 v1.10,2013-09-01 05:37:00,
2013-09-01 00:47:00,80.2,70.4,29.91,WNW,292,0.0,-999.0,72,0.00,,,0.00,open2300 v1.10,2013-09-01 05:47:00,
2013-09-01 00:52:00,80.1,70.2,29.91,WNW,292,0.0,-999.0,72,0.00,,,0.00,open2300 v1.10,2013-09-01 05:52:00,
2013-09-01 00:57:00,80.1,70.2,29.91,WNW,292,0.0,-999.0,72,0.00,,,0.00,open2300 v1.10,2013-09-01 05:57:00,
2013-09-01 01:07:00,79.9,70.1,29.91,WNW,292,0.0,-999.0,72,0.00,,,0.00,open2300 v1.10,2013-09-01 06:07:00,
2013-09-01 01:12:00,79.7,70.3,29.91,WNW,292,0.0,-999.0,73,0.00,,,0.00,open2300 v1.10,2013-09-01 06:12:00,
2013-09-01 01:17:00,79.5,70.1,29.90,WNW,292,0.0,-999.0,73,0.00,,,0.00,open2300 v1.10,2013-09-01 06:17:00,
2013-09-01 01:22:00,79.2,69.7,29.91,WNW,292,0.0,-999.0,73,0.00,,,0.00,open2300 v1.10,2013-09-01 06:22:00,
2013-09-01 01:27:00,79.0,69.9,29.91,WNW,292,0.0,-999.0,74,0.00,,,0.00,open2300 v1.10,2013-09-01 06:27:00,
2013-09-01 01:32:00,78.8,69.8,29.91,WNW,292,0.0,-999.0,74,0.00,,,0.00,open2300 v1.10,2013-09-01 06:32:00,
2013-09-01 01:37:00,78.6,69.6,29.91,WNW,292,0.0,-999.0,74,0.00,,,0.00,open2300 v1.10,2013-09-01 06:37:00,
2013-09-01 01:42:00,78.6,70.0,29.91,WNW,292,0.0,-999.0,75,0.00,,,0.00,open2300 v1.10,2013-09-01 06:42:00,
2013-09-01 01:47:00,78.4,69.8,29.90,WNW,292,0.0,-999.0,75,0.00,,,0.00,open2300 v1.10,2013-09-01 06:47:00,
2013-09-01 01:52:00,78.3,69.6,29.91,WNW,292,0.0,-999.0,75,0.00,,,0.00,open2300 v1.10,2013-09-01 06:52:00,
2013-09-01 01:57:00,78.3,69.6,29.90,WNW,292,0.0,-999.0,75,0.00,,,0.00,open2300 v1.10,2013-09-01 06:57:00,
2013-09-01 02:07:00,78.6,69.6,29.90,WNW,292,0.0,-999.0,74,0.00,,,0.00,open2300 v1.10,2013-09-01 07:07:00,
2013-09-01 02:12:00,78.6,69.6,29.90,WNW,292,0.0,-999.0,74,0.00,,,0.00,open2300 v1.10,2013-09-01 07:12:00,
2013-09-01 02:17:00,78.6,69.6,29.90,WNW,292,0.0,-999.0,74,0.00,,,0.00,open2300 v1.10,2013-09-01 07:17:00,
2013-09-01 02:27:00,78.6,70.0,29.91,SW,225,0.0,-999.0,75,0.00,,,0.00,open2300 v1.10,2013-09-01 07:27:00,
2013-09-01 02:32:00,78.4,69.8,29.90,SW,225,0.0,-999.0,75,0.00,,,0.00,open2300 v1.10,2013-09-01 07:32:00,
2013-09-01 02:37:00,78.1,69.5,29.91,WSW,247,0.0,-999.0,75,0.00,,,0.00,open2300 v1.10,2013-09-01 07:37:00,
2013-09-01 02:47:00,77.7,69.5,29.91,WSW,247,0.0,-999.0,76,0.00,,,0.00,open2300 v1.10,2013-09-01 07:47:00,
2013-09-01 02:52:00,77.5,69.3,29.91,SW,225,0.0,-999.0,76,0.00,,,0.00,open2300 v1.10,2013-09-01 07:52:00,
2013-09-01 02:57:00,77.5,69.3,29.91,SW,225,0.0,-999.0,76,0.00,,,0.00,open2300 v1.10,2013-09-01 07:57:00,
2013-09-01 03:07:00,77.9,68.9,29.91,WNW,292,0.0,-999.0,74,0.00,,,0.00,open2300 v1.10,2013-09-01 08:07:00,
2013-09-01 03:12:00,78.4,69.4,29.91,NW,315,0.0,-999.0,74,0.00,,,0.00,open2300 v1.10,2013-09-01 08:12:00,
2013-09-01 03:17:00,79.0,69.6,29.91,NW,315,0.0,-999.0,73,0.00,,,0.00,open2300 v1.10,2013-09-01 08:17:00,
2013-09-01 03:22:00,79.7,69.9,29.91,NW,315,0.0,-999.0,72,0.00,,,0.00,open2300 v1.10,2013-09-01 08:22:00,
2013-09-01 03:27:00,80.2,70.0,29.91,NW,315,0.0,-999.0,71,0.00,,,0.00,open2300 v1.10,2013-09-01 08:27:00,
2013-09-01 03:32:00,80.4,70.2,29.91,NW,315,0.0,-999.0,71,0.00,,,0.00,open2300 v1.10,2013-09-01 08:32:00,
2013-09-01 03:37:00,80.4,70.2,29.91,NW,315,0.0,-999.0,71,0.00,,,0.00,open2300 v1.10,2013-09-01 08:37:00,
2013-09-01 03:47:00,79.5,69.7,29.91,NW,315,0.0,-999.0,72,0.00,,,0.00,open2300 v1.10,2013-09-01 08:47:00,
2013-09-01 03:52:00,79.0,69.6,29.91,NW,315,0.0,-999.0,73,0.00,,,0.00,open2300 v1.10,2013-09-01 08:52:00,
2013-09-01 03:57:00,78.6,69.2,29.91,WNW,292,0.0,-999.0,73,0.00,,,0.00,open2300 v1.10,2013-09-01 08:57:00,
2013-09-01 04:06:00,78.3,68.9,29.91,WNW,292,0.0,-999.0,73,0.00,,,0.00,open2300 v1.10,2013-09-01 09:06:00,
2013-09-01 04:12:00,78.3,68.9,29.91,WNW,292,0.0,-999.0,73,0.00,,,0.00,open2300 v1.10,2013-09-01 09:12:00,
2013-09-01 04:17:00,78.1,69.1,29.91,WNW,292,0.0,-999.0,74,0.00,,,0.00,open2300 v1.10,2013-09-01 09:17:00,
2013-09-01 04:22:00,77.9,68.5,29.91,WNW,292,0.0,-999.0,73,0.00,,,0.00,open2300 v1.10,2013-09-01 09:22:00,
2013-09-01 04:27:00,78.1,68.7,29.91,WNW,292,0.0,-999.0,73,0.00,,,0.00,open2300 v1.10,2013-09-01 09:27:00,
2013-09-01 04:32:00,78.4,69.0,29.92,WNW,292,0.0,-999.0,73,0.00,,,0.00,open2300 v1.10,2013-09-01 09:32:00,
2013-09-01 04:37:00,79.0,69.2,29.91,WNW,292,0.0,-999.0,72,0.00,,,0.00,open2300 v1.10,2013-09-01 09:37:00,
2013-09-01 04:47:00,79.9,69.7,29.92,WNW,292,0.0,-999.0,71,0.00,,,0.00,open2300 v1.10,2013-09-01 09:47:00,
2013-09-01 04:52:00,80.2,69.6,29.92,NW,315,0.0,-999.0,70,0.00,,,0.00,open2300 v1.10,2013-09-01 09:52:00,
2013-09-01 04:57:00,80.4,69.8,29.92,WNW,292,0.0,-999.0,70,0.00,,,0.00,open2300 v1.10,2013-09-01 09:57:00,
2013-09-01 05:06:00,80.8,69.7,29.92,NW,315,0.0,-999.0,69,0.00,,,0.00,open2300 v1.10,2013-09-01 10:06:00,
2013-09-01 05:12:00,80.8,69.7,29.93,NW,315,0.0,-999.0,69,0.00,,,0.00,open2300 v1.10,2013-09-01 10:12:00,
2013-09-01 05:17:00,81.0,69.8,29.93,NW,315,1.1,-999.0,69,0.00,,,0.00,open2300 v1.10,2013-09-01 10:17:00,
2013-09-01 05:22:00,81.0,69.4,29.92,NW,315,1.3,-999.0,68,0.00,,,0.00,open2300 v1.10,2013-09-01 10:22:00,
2013-09-01 05:27:00,81.0,69.4,29.92,NW,315,4.7,-999.0,68,0.00,,,0.00,open2300 v1.10,2013-09-01 10:27:00,
2013-09-01 05:32:00,81.0,69.4,29.93,NNW,337,2.7,-999.0,68,0.00,,,0.00,open2300 v1.10,2013-09-01 10:32:00,
2013-09-01 05:37:00,80.8,69.7,29.93,NNW,337,0.0,-999.0,69,0.00,,,0.00,open2300 v1.10,2013-09-01 10:37:00,
2013-09-01 05:42:00,80.8,69.7,29.93,NNW,337,0.0,-999.0,69,0.00,,,0.00,open2300 v1.10,2013-09-01 10:42:00,
2013-09-01 05:47:00,80.8,69.7,29.93,NNW,337,0.0,-999.0,69,0.00,,,0.00,open2300 v1.10,2013-09-01 10:47:00,
2013-09-01 05:52:00,80.6,69.5,29.93,NNW,337,0.0,-999.0,69,0.00,,,0.00,open2300 v1.10,2013-09-01 10:52:00,
2013-09-01 05:57:00,80.8,69.7,29.93,NNW,337,0.0,-999.0,69,0.00,,,0.00,open2300 v1.10,2013-09-01 10:57:00,
2013-09-01 06:06:00,80.8,69.7,29.93,NW,315,0.7,-999.0,69,0.00,,,0.00,open2300 v1.10,2013-09-01 11:06:00,
2013-09-01 06:12:00,80.8,69.7,29.93,NW,315,4.2,-999.0,69,0.00,,,0.00,open2300 v1.10,2013-09-01 11:12:00,
2013-09-01 06:17:00,80.8,69.7,29.93,NW,315,3.1,-999.0,69,0.00,,,0.00,open2300 v1.10,2013-09-01 11:17:00,
2013-09-01 06:22:00,80.8,69.7,29.93,NW,315,4.2,-999.0,69,0.00,,,0.00,open2300 v1.10,2013-09-01 11:22:00,
2013-09-01 06:27:00,80.4,69.3,29.93,NW,315,0.0,-999.0,69,0.00,,,0.00,open2300 v1.10,2013-09-01 11:27:00,
2013-09-01 06:32:00,80.4,69.3,29.93,NW,315,1.3,-999.0,69,0.00,,,0.00,open2300 v1.10,2013-09-01 11:32:00,
2013-09-01 06:37:00,80.4,69.3,29.93,NNW,337,4.9,-999.0,69,0.00,,,0.00,open2300 v1.10,2013-09-01 11:37:00,
2013-09-01 06:47:00,80.2,69.6,29.94,NNW,337,0.0,-999.0,70,0.00,,,0.00,open2300 v1.10,2013-09-01 11:47:00,
2013-09-01 06:52:00,80.2,69.6,29.95,NW,315,2.9,-999.0,70,0.00,,,0.00,open2300 v1.10,2013-09-01 11:52:00,
2013-09-01 06:57:00,80.2,69.6,29.94,NNW,337,4.5,-999.0,70,0.00,,,0.00,open2300 v1.10,2013-09-01 11:57:00,
2013-09-01 07:07:00,80.2,69.6,29.95,NNW,337,0.0,-999.0,70,0.00,,,0.00,open2300 v1.10,2013-09-01 12:07:00,
2013-09-01 07:17:00,80.4,69.8,29.95,NNW,337,6.3,-999.0,70,0.00,,,0.00,open2300 v1.10,2013-09-01 12:17:00,
2013-09-01 07:22:00,80.6,70.0,29.95,NNW,337,5.6,-999.0,70,0.00,,,0.00,open2300 v1.10,2013-09-01 12:22:00,
2013-09-01 07:27:00,80.8,70.1,29.95,NW,315,4.0,-999.0,70,0.00,,,0.00,open2300 v1.10,2013-09-01 12:27:00,
2013-09-01 07:32:00,80.8,70.1,29.95,NNW,337,0.0,-999.0,70,0.00,,,0.00,open2300 v1.10,2013-09-01 12:32:00,
2013-09-01 07:37:00,81.0,70.3,29.95,NNW,337,4.9,-999.0,70,0.00,,,0.00,open2300 v1.10,2013-09-01 12:37:00,
2013-09-01 07:47:00,81.3,70.6,29.96,NNW,337,1.8,-999.0,70,0.00,,,0.00,open2300 v1.10,2013-09-01 12:47:00,
2013-09-01 07:52:00,81.3,70.6,29.95,NNW,337,6.3,-999.0,70,0.00,,,0.00,open2300 v1.10,2013-09-01 12:52:00,
2013-09-01 07:57:00,81.3,70.6,29.95,NNW,337,7.2,-999.0,70,0.00,,,0.00,open2300 v1.10,2013-09-01 12:57:00,
2013-09-01 08:06:00,81.7,70.9,29.96,North,0,3.8,-999.0,70,0.00,,,0.00,open2300 v1.10,2013-09-01 13:06:00,
2013-09-01 08:12:00,81.7,70.9,29.96,NNW,337,0.0,-999.0,70,0.00,,,0.00,open2300 v1.10,2013-09-01 13:12:00,
2013-09-01 08:17:00,81.9,71.5,29.96,North,0,0.0,-999.0,71,0.00,,,0.00,open2300 v1.10,2013-09-01 13:17:00,
2013-09-01 08:22:00,82.0,71.7,29.96,NE,45,0.0,-999.0,71,0.00,,,0.00,open2300 v1.10,2013-09-01 13:22:00,
2013-09-01 08:27:00,81.9,71.5,29.96,NW,315,3.8,-999.0,71,0.00,,,0.00,open2300 v1.10,2013-09-01 13:27:00,
2013-09-01 08:32:00,82.0,71.7,29.96,NNW,337,6.7,-999.0,71,0.00,,,0.00,open2300 v1.10,2013-09-01 13:32:00,
2013-09-01 08:37:00,82.0,71.7,29.96,NW,315,4.9,-999.0,71,0.00,,,0.00,open2300 v1.10,2013-09-01 13:37:00,
2013-09-01 08:42:00,82.0,71.7,29.96,ENE,67,0.0,-999.0,71,0.00,,,0.00,open2300 v1.10,2013-09-01 13:42:00,
2013-09-01 08:47:00,82.0,71.7,29.97,NNW,337,4.5,-999.0,71,0.00,,,0.00,open2300 v1.10,2013-09-01 13:47:00,
2013-09-01 08:52:00,82.2,71.8,29.96,North,0,5.6,-999.0,71,0.00,,,0.00,open2300 v1.10,2013-09-01 13:52:00,
2013-09-01 08:57:00,82.4,72.0,29.97,North,0,7.4,-999.0,71,0.00,,,0.00,open2300 v1.10,2013-09-01 13:57:00,
2013-09-01 09:06:00,82.6,72.2,29.97,NNE,22,0.0,-999.0,71,0.00,,,0.00,open2300 v1.10,2013-09-01 14:06:00,
2013-09-01 09:12:00,82.8,72.4,29.97,North,0,4.2,-999.0,71,0.00,,,0.00,open2300 v1.10,2013-09-01 14:12:00,
2013-09-01 09:17:00,82.8,72.4,29.97,NNW,337,8.5,-999.0,71,0.00,,,0.00,open2300 v1.10,2013-09-01 14:17:00,
2013-09-01 09:22:00,82.9,72.5,29.97,NNW,337,2.2,-999.0,71,0.00,,,0.00,open2300 v1.10,2013-09-01 14:22:00,
2013-09-01 09:32:00,83.1,72.7,29.97,NNW,337,2.5,-999.0,71,0.00,,,0.00,open2300 v1.10,2013-09-01 14:32:00,
2013-09-01 09:37:00,83.3,72.5,29.96,NNW,337,0.0,-999.0,70,0.00,,,0.00,open2300 v1.10,2013-09-01 14:37:00,
2013-09-01 09:42:00,83.3,72.9,29.97,NNW,337,0.0,-999.0,71,0.00,,,0.00,open2300 v1.10,2013-09-01 14:42:00,
2013-09-01 09:52:00,83.8,72.6,29.97,NE,45,8.3,-999.0,69,0.00,,,0.00,open2300 v1.10,2013-09-01 14:52:00,
2013-09-01 09:57:00,84.0,72.3,29.96,NE,45,2.2,-999.0,68,0.00,,,0.00,open2300 v1.10,2013-09-01 14:57:00,
2013-09-01 10:06:00,84.0,72.3,29.97,NNE,22,0.0,-999.0,68,0.00,,,0.00,open2300 v1.10,2013-09-01 15:06:00,
2013-09-01 10:12:00,84.0,71.9,29.97,NNW,337,3.8,-999.0,67,0.00,,,0.00,open2300 v1.10,2013-09-01 15:12:00,
2013-09-01 10:17:00,84.4,71.8,29.97,ENE,67,6.7,-999.0,66,0.00,,,0.00,open2300 v1.10,2013-09-01 15:17:00,
2013-09-01 10:22:00,84.2,71.6,29.97,North,0,2.2,-999.0,66,0.00,,,0.00,open2300 v1.10,2013-09-01 15:22:00,
2013-09-01 10:27:00,84.6,71.9,29.97,NNW,337,0.0,-999.0,66,0.00,,,0.00,open2300 v1.10,2013-09-01 15:27:00,
2013-09-01 10:32:00,84.7,71.7,29.97,NW,315,1.6,-999.0,65,0.00,,,0.00,open2300 v1.10,2013-09-01 15:32:00,
2013-09-01 10:37:00,85.1,71.6,29.97,NW,315,0.0,-999.0,64,0.00,,,0.00,open2300 v1.10,2013-09-01 15:37:00,
2013-09-01 10:42:00,85.3,71.7,29.98,NNW,337,0.0,-999.0,64,0.00,,,0.00,open2300 v1.10,2013-09-01 15:42:00,
2013-09-01 10:47:00,85.3,71.7,29.98,North,0,0.0,-999.0,64,0.00,,,0.00,open2300 v1.10,2013-09-01 15:47:00,
2013-09-01 10:52:00,85.8,71.7,29.97,NNW,337,0.9,-999.0,63,0.00,,,0.00,open2300 v1.10,2013-09-01 15:52:00,
2013-09-01 10:57:00,85.8,72.2,29.97,NNW,337,3.8,-999.0,64,0.00,,,0.00,open2300 v1.10,2013-09-01 15:57:00,
2013-09-01 11:06:00,86.2,72.1,29.97,NW,315,0.0,-999.0,63,0.00,,,0.00,open2300 v1.10,2013-09-01 16:06:00,
2013-09-01 11:12:00,86.5,72.0,29.97,North,0,0.0,-999.0,62,0.00,,,0.00,open2300 v1.10,2013-09-01 16:12:00,
2013-09-01 11:17:00,86.7,72.2,29.97,West,270,0.9,-999.0,62,0.00,,,0.00,open2300 v1.10,2013-09-01 16:17:00,
2013-09-01 11:22:00,87.1,72.1,29.97,NW,315,8.3,-999.0,61,0.00,,,0.00,open2300 v1.10,2013-09-01 16:22:00,
2013-09-01 11:27:00,87.4,72.4,29.97,NW,315,6.7,-999.0,61,0.00,,,0.00,open2300 v1.10,2013-09-01 16:27:00,
2013-09-01 11:32:00,87.6,72.1,29.96,NNW,337,9.2,-999.0,60,0.00,,,0.00,open2300 v1.10,2013-09-01 16:32:00,
2013-09-01 11:37:00,88.0,72.5,29.97,NW,315,2.0,-999.0,60,0.00,,,0.00,open2300 v1.10,2013-09-01 16:37:00,
2013-09-01 11:47:00,88.2,72.1,29.97,NNW,337,8.7,-999.0,59,0.00,,,0.00,open2300 v1.10,2013-09-01 16:47:00,
2013-09-01 11:52:00,88.3,72.3,29.96,NW,315,5.6,-999.0,59,0.00,,,0.00,open2300 v1.10,2013-09-01 16:52:00,
2013-09-01 11:57:00,88.3,72.3,29.96,NW,315,2.7,-999.0,59,0.00,,,0.00,open2300 v1.10,2013-09-01 16:57:00,
2013-09-01 12:07:00,88.9,72.2,29.96,NW,315,2.7,-999.0,58,0.00,,,0.00,open2300 v1.10,2013-09-01 17:07:00,
2013-09-01 12:12:00,89.4,72.7,29.96,ESE,112,1.6,-999.0,58,0.00,,,0.00,open2300 v1.10,2013-09-01 17:12:00,
2013-09-01 12:17:00,89.4,72.7,29.96,ENE,67,0.0,-999.0,58,0.00,,,0.00,open2300 v1.10,2013-09-01 17:17:00,
2013-09-01 12:22:00,89.4,72.7,29.96,NNW,337,0.0,-999.0,58,0.00,,,0.00,open2300 v1.10,2013-09-01 17:22:00,
2013-09-01 12:27:00,89.8,72.5,29.96,North,0,0.2,-999.0,57,0.00,,,0.00,open2300 v1.10,2013-09-01 17:27:00,
2013-09-01 12:32:00,89.8,72.5,29.96,NNW,337,0.0,-999.0,57,0.00,,,0.00,open2300 v1.10,2013-09-01 17:32:00,
2013-09-01 12:37:00,90.1,72.8,29.96,NNE,22,4.7,-999.0,57,0.00,,,0.00,open2300 v1.10,2013-09-01 17:37:00,
2013-09-01 12:47:00,90.3,71.9,29.95,NNW,337,11.0,-999.0,55,0.00,,,0.00,open2300 v1.10,2013-09-01 17:47:00,
2013-09-01 12:52:00,90.5,72.1,29.95,NW,315,0.7,-999.0,55,0.00,,,0.00,open2300 v1.10,2013-09-01 17:52:00,
2013-09-01 12:57:00,90.7,72.2,29.95,North,0,0.0,-999.0,55,0.00,,,0.00,open2300 v1.10,2013-09-01 17:57:00,
2013-09-01 13:06:00,90.9,71.8,29.94,NNW,337,7.4,-999.0,54,0.00,,,0.00,open2300 v1.10,2013-09-01 18:06:00,
2013-09-01 13:12:00,90.7,71.7,29.94,North,0,0.0,-999.0,54,0.00,,,0.00,open2300 v1.10,2013-09-01 18:12:00,
2013-09-01 13:17:00,90.7,71.7,29.94,ESE,112,0.0,-999.0,54,0.00,,,0.00,open2300 v1.10,2013-09-01 18:17:00,
2013-09-01 13:22:00,90.7,71.1,29.94,NW,315,8.1,-999.0,53,0.00,,,0.00,open2300 v1.10,2013-09-01 18:22:00,
2013-09-01 13:27:00,90.9,71.3,29.94,NNW,337,5.8,-999.0,53,0.00,,,0.00,open2300 v1.10,2013-09-01 18:27:00,
2013-09-01 13:32:00,91.0,70.9,29.94,NNW,337,0.0,-999.0,52,0.00,,,0.00,open2300 v1.10,2013-09-01 18:32:00,
2013-09-01 13:37:00,91.2,70.0,29.93,East,90,2.0,-999.0,50,0.00,,,0.00,open2300 v1.10,2013-09-01 18:37:00,
2013-09-01 13:47:00,91.4,71.2,29.93,NW,315,0.0,-999.0,52,0.00,,,0.00,open2300 v1.10,2013-09-01 18:47:00,
2013-09-01 13:52:00,91.6,71.4,29.93,WNW,292,4.7,-999.0,52,0.00,,,0.00,open2300 v1.10,2013-09-01 18:52:00,
2013-09-01 13:57:00,91.8,71.0,29.93,SW,225,0.0,-999.0,51,0.00,,,0.00,open2300 v1.10,2013-09-01 18:57:00,
2013-09-01 14:07:00,91.9,71.2,29.93,NE,45,0.0,-999.0,51,0.00,,,0.00,open2300 v1.10,2013-09-01 19:07:00,
2013-09-01 14:12:00,91.8,71.0,29.92,NNW,337,6.3,-999.0,51,0.00,,,0.00,open2300 v1.10,2013-09-01 19:12:00,
2013-09-01 14:17:00,91.8,71.0,29.92,North,0,0.0,-999.0,51,0.00,,,0.00,open2300 v1.10,2013-09-01 19:17:00,
2013-09-01 14:22:00,91.8,71.0,29.92,NNW,337,2.5,-999.0,51,0.00,,,0.00,open2300 v1.10,2013-09-01 19:22:00,
2013-09-01 14:27:00,91.9,71.2,29.92,South,180,0.0,-999.0,51,0.00,,,0.00,open2300 v1.10,2013-09-01 19:27:00,
2013-09-01 14:32:00,92.1,71.3,29.91,NNW,337,1.6,-999.0,51,0.00,,,0.00,open2300 v1.10,2013-09-01 19:32:00,
2013-09-01 14:37:00,92.3,71.0,29.91,NW,315,0.0,-999.0,50,0.00,,,0.00,open2300 v1.10,2013-09-01 19:37:00,
2013-09-01 14:42:00,92.5,71.1,29.91,NW,315,0.0,-999.0,50,0.00,,,0.00,open2300 v1.10,2013-09-01 19:42:00,
2013-09-01 14:47:00,92.7,71.3,29.91,WNW,292,8.5,-999.0,50,0.00,,,0.00,open2300 v1.10,2013-09-01 19:47:00,
2013-09-01 14:52:00,92.8,70.8,29.91,NW,315,14.8,-999.0,49,0.00,,,0.00,open2300 v1.10,2013-09-01 19:52:00,
2013-09-01 14:57:00,93.0,70.3,29.91,NNW,337,6.7,-999.0,48,0.00,,,0.00,open2300 v1.10,2013-09-01 19:57:00,
2013-09-01 15:07:00,93.0,69.7,29.90,NW,315,9.8,-999.0,47,0.00,,,0.00,open2300 v1.10,2013-09-01 20:07:00,
2013-09-01 15:12:00,93.0,68.4,29.90,NNW,337,0.0,-999.0,45,0.00,,,0.00,open2300 v1.10,2013-09-01 20:12:00,
2013-09-01 15:22:00,93.4,70.0,29.89,NNW,337,5.6,-999.0,47,0.00,,,0.00,open2300 v1.10,2013-09-01 20:22:00,
2013-09-01 15:27:00,93.6,70.2,29.89,WNW,292,0.0,-999.0,47,0.00,,,0.00,open2300 v1.10,2013-09-01 20:27:00,
2013-09-01 15:32:00,93.7,69.7,29.88,NW,315,6.0,-999.0,46,0.00,,,0.00,open2300 v1.10,2013-09-01 20:32:00,
2013-09-01 15:37:00,93.7,69.7,29.89,WNW,292,4.0,-999.0,46,0.00,,,0.00,open2300 v1.10,2013-09-01 20:37:00,
2013-09-01 15:42:00,93.9,69.9,29.88,NW,315,0.0,-999.0,46,0.00,,,0.00,open2300 v1.10,2013-09-01 20:42:00,
2013-09-01 15:47:00,93.9,70.5,29.88,NW,315,8.1,-999.0,47,0.00,,,0.00,open2300 v1.10,2013-09-01 20:47:00,
2013-09-01 15:52:00,94.1,70.7,29.89,NW,315,2.2,-999.0,47,0.00,,,0.00,open2300 v1.10,2013-09-01 20:52:00,
2013-09-01 16:01:00,94.5,70.4,29.89,North,0,0.4,-999.0,46,0.00,,,0.00,open2300 v1.10,2013-09-01 21:01:00,
2013-09-01 16:06:00,94.6,70.6,29.89,NW,315,7.6,-999.0,46,0.00,,,0.00,open2300 v1.10,2013-09-01 21:06:00,
2013-09-01 16:12:00,94.6,69.9,29.89,NE,45,2.2,-999.0,45,0.00,,,0.00,open2300 v1.10,2013-09-01 21:12:00,
2013-09-01 16:17:00,94.6,69.9,29.89,NW,315,0.0,-999.0,45,0.00,,,0.00,open2300 v1.10,2013-09-01 21:17:00,
2013-09-01 16:22:00,94.8,70.1,29.88,NW,315,0.0,-999.0,45,0.00,,,0.00,open2300 v1.10,2013-09-01 21:22:00,
2013-09-01 16:27:00,94.8,70.7,29.88,NW,315,6.9,-999.0,46,0.00,,,0.00,open2300 v1.10,2013-09-01 21:27:00,
2013-09-01 16:32:00,95.2,71.1,29.87,North,0,0.0,-999.0,46,0.00,,,0.00,open2300 v1.10,2013-09-01 21:32:00,
2013-09-01 16:37:00,95.2,70.4,29.88,NE,45,4.5,-999.0,45,0.00,,,0.00,open2300 v1.10,2013-09-01 21:37:00,
2013-09-01 16:42:00,95.2,70.4,29.87,SSW,202,0.7,-999.0,45,0.00,,,0.00,open2300 v1.10,2013-09-01 21:42:00,
2013-09-01 16:47:00,95.2,71.1,29.88,West,270,0.0,-999.0,46,0.00,,,0.00,open2300 v1.10,2013-09-01 21:47:00,
2013-09-01 16:52:00,95.0,71.6,29.88,South,180,0.0,-999.0,47,0.00,,,0.00,open2300 v1.10,2013-09-01 21:52:00,
2013-09-01 16:57:00,94.8,71.4,29.87,WSW,247,0.0,-999.0,47,0.00,,,0.00,open2300 v1.10,2013-09-01 21:57:00,
2013-09-01 17:06:00,95.0,71.6,29.87,NW,315,2.0,-999.0,47,0.00,,,0.00,open2300 v1.10,2013-09-01 22:06:00,
2013-09-01 17:12:00,94.8,71.4,29.87,WNW,292,6.9,-999.0,47,0.00,,,0.00,open2300 v1.10,2013-09-01 22:12:00,
2013-09-01 17:17:00,94.8,71.4,29.87,NW,315,1.6,-999.0,47,0.00,,,0.00,open2300 v1.10,2013-09-01 22:17:00,
2013-09-01 17:22:00,94.8,71.4,29.87,SW,225,0.0,-999.0,47,0.00,,,0.00,open2300 v1.10,2013-09-01 22:22:00,
2013-09-01 17:27:00,94.8,71.4,29.87,WNW,292,0.0,-999.0,47,0.00,,,0.00,open2300 v1.10,2013-09-01 22:27:00,
2013-09-01 17:32:00,94.8,71.4,29.87,NNW,337,0.0,-999.0,47,0.00,,,0.00,open2300 v1.10,2013-09-01 22:32:00,
2013-09-01 17:37:00,94.8,71.4,29.87,NW,315,4.0,-999.0,47,0.00,,,0.00,open2300 v1.10,2013-09-01 22:37:00,
2013-09-01 17:47:00,95.0,71.6,29.87,NNW,337,0.0,-999.0,47,0.00,,,0.00,open2300 v1.10,2013-09-01 22:47:00,
2013-09-01 17:52:00,95.2,71.7,29.87,NW,315,0.0,-999.0,47,0.00,,,0.00,open2300 v1.10,2013-09-01 22:52:00,
2013-09-01 17:57:00,95.2,71.7,29.87,NW,315,0.0,-999.0,47,0.00,,,0.00,open2300 v1.10,2013-09-01 22:57:00,
2013-09-01 18:07:00,95.0,72.2,29.87,NW,315,0.0,-999.0,48,0.00,,,0.00,open2300 v1.10,2013-09-01 23:07:00,
2013-09-01 18:12:00,94.8,72.1,29.87,NNW,337,0.0,-999.0,48,0.00,,,0.00,open2300 v1.10,2013-09-01 23:12:00,
2013-09-01 18:17:00,94.6,72.6,29.87,SSW,202,0.0,-999.0,49,0.00,,,0.00,open2300 v1.10,2013-09-01 23:17:00,
2013-09-01 18:22:00,94.1,72.0,29.87,SSW,202,1.3,-999.0,49,0.00,,,0.00,open2300 v1.10,2013-09-01 23:22:00,
2013-09-01 18:27:00,93.7,71.7,29.87,WSW,247,0.0,-999.0,49,0.00,,,0.00,open2300 v1.10,2013-09-01 23:27:00,
2013-09-01 18:32:00,93.6,72.1,29.87,ESE,112,0.0,-999.0,50,0.00,,,0.00,open2300 v1.10,2013-09-01 23:32:00,
2013-09-01 18:37:00,93.0,71.6,29.87,SSW,202,0.0,-999.0,50,0.00,,,0.00,open2300 v1.10,2013-09-01 23:37:00,
2013-09-01 18:42:00,92.7,71.3,29.88,SW,225,0.7,-999.0,50,0.00,,,0.00,open2300 v1.10,2013-09-01 23:42:00,
2013-09-01 18:47:00,92.5,71.7,29.87,WSW,247,0.0,-999.0,51,0.00,,,0.00,open2300 v1.10,2013-09-01 23:47:00,
2013-09-01 18:52:00,91.9,71.2,29.88,WSW,247,0.0,-999.0,51,0.00,,,0.00,open2300 v1.10,2013-09-01 23:52:00,
2013-09-01 18:57:00,91.8,71.6,29.88,WSW,247,0.0,-999.0,52,0.00,,,0.00,open2300 v1.10,2013-09-01 23:57:00,
2013-09-01 19:07:00,91.2,71.1,29.88,WSW,247,1.6,-999.0,52,0.00,,,0.00,open2300 v1.10,2013-09-02 00:07:00,
2013-09-01 19:12:00,91.0,71.5,29.88,WSW,247,0.0,-999.0,53,0.00,,,0.00,open2300 v1.10,2013-09-02 00:12:00,
2013-09-01 19:17:00,91.0,71.5,29.88,SW,225,0.0,-999.0,53,0.00,,,0.00,open2300 v1.10,2013-09-02 00:17:00,
2013-09-01 19:22:00,90.7,71.1,29.88,SSW,202,0.0,-999.0,53,0.00,,,0.00,open2300 v1.10,2013-09-02 00:22:00,
2013-09-01 19:27:00,90.5,71.0,29.88,SW,225,0.0,-999.0,53,0.00,,,0.00,open2300 v1.10,2013-09-02 00:27:00,
2013-09-01 19:32:00,90.3,70.8,29.88,WSW,247,0.0,-999.0,53,0.00,,,0.00,open2300 v1.10,2013-09-02 00:32:00,
2013-09-01 19:37:00,90.1,70.7,29.88,WSW,247,0.0,-999.0,53,0.00,,,0.00,open2300 v1.10,2013-09-02 00:37:00,
2013-09-01 19:47:00,89.8,70.9,29.89,WSW,247,0.0,-999.0,54,0.00,,,0.00,open2300 v1.10,2013-09-02 00:47:00,
2013-09-01 19:52:00,89.8,70.9,29.89,WSW,247,0.0,-999.0,54,0.00,,,0.00,open2300 v1.10,2013-09-02 00:52:00,
2013-09-01 19:57:00,89.6,70.7,29.90,SW,225,0.0,-999.0,54,0.00,,,0.00,open2300 v1.10,2013-09-02 00:57:00,
2013-09-01 20:07:00,88.9,71.1,29.90,SE,135,0.0,-999.0,56,0.00,,,0.00,open2300 v1.10,2013-09-02 01:07:00,
2013-09-01 20:12:00,88.5,71.3,29.91,ENE,67,1.6,-999.0,57,0.00,,,0.00,open2300 v1.10,2013-09-02 01:12:00,
2013-09-01 20:17:00,88.2,70.5,29.91,SSE,157,1.6,-999.0,56,0.00,,,0.00,open2300 v1.10,2013-09-02 01:17:00,
2013-09-01 20:22:00,87.1,70.5,29.91,SE,135,0.0,-999.0,58,0.00,,,0.00,open2300 v1.10,2013-09-02 01:22:00,
2013-09-01 20:27:00,86.4,69.8,29.91,SSE,157,0.0,-999.0,58,0.00,,,0.00,open2300 v1.10,2013-09-02 01:27:00,
2013-09-01 20:32:00,85.8,69.8,29.91,ESE,112,3.8,-999.0,59,0.00,,,0.00,open2300 v1.10,2013-09-02 01:32:00,
2013-09-01 20:37:00,85.3,69.9,29.91,SE,135,1.8,-999.0,60,0.00,,,0.00,open2300 v1.10,2013-09-02 01:37:00,
2013-09-01 20:47:00,84.7,69.4,29.91,SE,135,0.0,-999.0,60,0.00,,,0.00,open2300 v1.10,2013-09-02 01:47:00,
2013-09-01 20:52:00,84.7,69.8,29.91,SE,135,0.0,-999.0,61,0.00,,,0.00,open2300 v1.10,2013-09-02 01:52:00,
2013-09-01 20:57:00,84.7,69.8,29.91,SSE,157,0.0,-999.0,61,0.00,,,0.00,open2300 v1.10,2013-09-02 01:57:00,
2013-09-01 21:07:00,84.7,69.8,29.92,SSW,202,0.0,-999.0,61,0.00,,,0.00,open2300 v1.10,2013-09-02 02:07:00,
2013-09-01 21:12:00,84.7,69.8,29.92,SSW,202,0.0,-999.0,61,0.00,,,0.00,open2300 v1.10,2013-09-02 02:12:00,
2013-09-01 21:17:00,84.7,69.8,29.92,SSW,202,0.0,-999.0,61,0.00,,,0.00,open2300 v1.10,2013-09-02 02:17:00,
2013-09-01 21:22:00,84.9,70.0,29.92,SSW,202,0.0,-999.0,61,0.00,,,0.00,open2300 v1.10,2013-09-02 02:22:00,
2013-09-01 21:27:00,84.9,70.0,29.92,SSW,202,0.0,-999.0,61,0.00,,,0.00,open2300 v1.10,2013-09-02 02:27:00,
2013-09-01 21:32:00,85.1,70.2,29.92,SSW,202,0.0,-999.0,61,0.00,,,0.00,open2300 v1.10,2013-09-02 02:32:00,
2013-09-01 21:37:00,85.5,70.5,29.91,SSW,202,0.0,-999.0,61,0.00,,,0.00,open2300 v1.10,2013-09-02 02:37:00,
2013-09-01 21:42:00,85.6,70.2,29.92,SSW,202,0.0,-999.0,60,0.00,,,0.00,open2300 v1.10,2013-09-02 02:42:00,
2013-09-01 21:47:00,85.8,70.8,29.92,SSW,202,0.0,-999.0,61,0.00,,,0.00,open2300 v1.10,2013-09-02 02:47:00,
2013-09-01 21:52:00,85.6,70.7,29.92,SSW,202,0.0,-999.0,61,0.00,,,0.00,open2300 v1.10,2013-09-02 02:52:00,
2013-09-01 21:57:00,85.6,70.7,29.92,SSW,202,0.0,-999.0,61,0.00,,,0.00,open2300 v1.10,2013-09-02 02:57:00,
2013-09-01 22:06:00,85.1,70.6,29.92,SSW,202,0.0,-999.0,62,0.00,,,0.00,open2300 v1.10,2013-09-02 03:06:00,
2013-09-01 22:12:00,85.1,71.1,29.93,SSW,202,0.0,-999.0,63,0.00,,,0.00,open2300 v1.10,2013-09-02 03:12:00,
2013-09-01 22:17:00,84.9,70.9,29.93,SSW,202,0.0,-999.0,63,0.00,,,0.00,open2300 v1.10,2013-09-02 03:17:00,
2013-09-01 22:22:00,84.6,71.0,29.93,SSW,202,0.0,-999.0,64,0.00,,,0.00,open2300 v1.10,2013-09-02 03:22:00,
2013-09-01 22:27:00,84.6,71.0,29.93,SSW,202,0.0,-999.0,64,0.00,,,0.00,open2300 v1.10,2013-09-02 03:27:00,
2013-09-01 22:32:00,84.6,71.0,29.93,SW,225,0.0,-999.0,64,0.00,,,0.00,open2300 v1.10,2013-09-02 03:32:00,
2013-09-01 22:42:00,84.9,71.4,29.93,SW,225,0.0,-999.0,64,0.00,,,0.00,open2300 v1.10,2013-09-02 03:42:00,
2013-09-01 22:47:00,84.9,71.4,29.93,SW,225,0.0,-999.0,64,0.00,,,0.00,open2300 v1.10,2013-09-02 03:47:00,
2013-09-01 22:52:00,85.3,71.7,29.92,SW,225,0.0,-999.0,64,0.00,,,0.00,open2300 v1.10,2013-09-02 03:52:00,
2013-09-01 22:57:00,85.6,72.1,29.92,SW,225,0.0,-999.0,64,0.00,,,0.00,open2300 v1.10,2013-09-02 03:57:00,
2013-09-01 23:01:00,85.8,71.7,29.93,SSW,202,0.0,-999.0,63,0.00,,,0.00,open2300 v1.10,2013-09-02 04:01:00,
2013-09-01 23:06:00,85.8,71.7,29.93,SW,225,0.0,-999.0,63,0.00,,,0.00,open2300 v1.10,2013-09-02 04:06:00,
2013-09-01 23:12:00,85.8,71.7,29.93,SW,225,0.0,-999.0,63,0.00,,,0.00,open2300 v1.10,2013-09-02 04:12:00,
2013-09-01 23:17:00,85.8,71.7,29.93,WSW,247,0.0,-999.0,63,0.00,,,0.00,open2300 v1.10,2013-09-02 04:17:00,
2013-09-01 23:22:00,85.8,71.7,29.93,WSW,247,1.6,-999.0,63,0.00,,,0.00,open2300 v1.10,2013-09-02 04:22:00,
2013-09-01 23:27:00,85.8,71.7,29.93,SW,225,4.2,-999.0,63,0.00,,,0.00,open2300 v1.10,2013-09-02 04:27:00,
2013-09-01 23:32:00,85.8,71.7,29.92,SSW,202,2.7,-999.0,63,0.00,,,0.00,open2300 v1.10,2013-09-02 04:32:00,
2013-09-01 23:37:00,85.8,71.7,29.92,WSW,247,0.0,-999.0,63,0.00,,,0.00,open2300 v1.10,2013-09-02 04:37:00,
2013-09-01 23:42:00,85.8,71.7,29.93,West,270,2.0,-999.0,63,0.00,,,0.00,open2300 v1.10,2013-09-02 04:42:00,
2013-09-01 23:52:00,85.6,72.1,29.93,SW,225,0.0,-999.0,64,0.00,,,0.00,open2300 v1.10,2013-09-02 04:52:00,
2013-09-01 23:57:00,85.6,72.1,29.93,WNW,292,4.2,-999.0,64,0.00,,,0.00,open2300 v1.10,2013-09-02 04:57:00,